Ship Status Report: callsign BATFR13

sailwx.info

Track history (hours):
 
Tides and Currents Weather Stations Pressure Air Temp Water Temp Dewpoint Dewpoint Depression Visibility Wind Speed Wind Dir Waves Ship Positions

Callsign BATFR13 (name unknown)

Last reported at 2016-Jun-30 04:00 UTC. Time now 2016-Jun-30 08:46 UTC.
Position N 51°54' E 004°24'.

Barometer 1009.5 mb

Date/timePositionNaut miles runAvg speedWind from/ knotsBaromVisibWave heightAir tempDewpointWater temp
2016-Jun-30 04:00N 51°54' E 004°24'4 3.7 1009.5
2016-Jun-30 03:00N 51°54' E 004°18'3311.1 1009.4
2016-Jun-30 00:00N 51°54' E 003°24'1111.1 1008.9
2016-Jun-29 23:00N 51°54' E 003°06'1616.0 1008.8
2016-Jun-29 22:00N 51°48' E 002°42'1616.4 1008.8
2016-Jun-29 21:00N 51°36' E 002°24'1616.4 1009.4
2016-Jun-29 20:00N 51°24' E 002°06'1312.6 1009.6
2016-Jun-29 19:00N 51°12' E 002°00'1616.2 1009.7
2016-Jun-29 18:00N 51°06' E 001°36'2019.5 1010.1
2016-Jun-29 17:00N 50°48' E 001°24'1414.2 1010.7
2016-Jun-29 16:00N 50°36' E 001°12'15216.9 1011.5
2016-Jun-29 07:00N 49°54' W 002°36'1716.6 230 / 171013.3 14.0 14.9
2016-Jun-29 06:00N 49°48' W 003°00'3618.0 230 / 181013.3 14.2 14.7
2016-Jun-29 04:00N 49°30' W 003°48'1716.7 230 / 141014.0 15.4 15.7
2016-Jun-29 03:00N 49°24' W 004°12'2019.5 250 / 171014.1 15.4 16.7
2016-Jun-29 02:00N 49°24' W 004°42'5518.2 250 / 161014.5 15.7 16.7
2016-Jun-28 23:00N 49°24' W 006°06'1615.6 260 / 181015.9 17.9 17.7
2016-Jun-28 22:00N 49°24' W 006°30'8617.2 270 / 191016.2 16.2 18.7
2016-Jun-28 17:00N 49°18' W 008°42'2019.6 280 / 191016.7 16.4 17.5
2016-Jun-28 16:00N 49°18' W 009°12'2713.7 280 / 201017.0 15.9 17.4
2016-Jun-28 14:00N 49°18' W 009°54'3617.9 290 / 191017.4 15.9 16.7
2016-Jun-28 12:00N 49°12' W 010°48'1716.8 280 / 181017.6 15.4 16.0
2016-Jun-28 11:00N 49°06' W 011°12'3517.7 290 / 191017.9 15.0 15.4
2016-Jun-28 09:00N 49°06' W 012°06'3617.9 300 / 241018.0 14.9 15.9
2016-Jun-28 07:00N 49°00' W 013°00'5217.2 300 / 261017.8 14.9 16.7
2016-Jun-28 04:00N 48°54' W 014°18'5718.9 290 / 241017.4 15.4 16.7
2016-Jun-28 01:00N 48°42' W 015°42'14117.7 260 / 201018.6 16.4 15.9
2016-Jun-27 17:00N 48°18' W 019°12'9118.3 250 / 201023.2 18.4 16.2
2016-Jun-27 12:00N 47°54' W 021°24'22018.3 260 / 201026.2 17.4 16.5
2016-Jun-27 00:00N 46°54' W 026°36'3517.5 250 / 161033.1 17.7 17.2
2016-Jun-26 22:00N 46°42' W 027°24'3919.5 250 / 171033.6 18.5 18.2
2016-Jun-26 20:00N 46°30' W 028°18'5317.6 240 / 161034.0 19.4 18.2
2016-Jun-26 17:00N 46°12' W 029°30'1817.7 240 / 141034.9 20.7 18.4
2016-Jun-26 16:00N 46°06' W 029°54'1817.7 240 / 131035.2 20.4 18.2
2016-Jun-26 15:00N 46°00' W 030°18'2221.7 230 / 141035.6 20.5 18.2
2016-Jun-26 14:00N 45°54' W 030°48'1817.8 230 / 141036.1 20.0 17.7
2016-Jun-26 13:00N 45°48' W 031°12'1817.8 230 / 151036.3 18.9 18.5
2016-Jun-26 12:00N 45°42' W 031°36'3819.1 230 / 131036.4 19.0 17.9
2016-Jun-26 10:00N 45°24' W 032°24'1817.9 220 / 131036.3 17.9 18.0
2016-Jun-26 09:00N 45°18' W 032°48'1817.9 220 / 141036.0 17.4 18.2
2016-Jun-26 08:00N 45°12' W 033°12'1818.0 220 / 131035.9 17.4 18.5
2016-Jun-26 07:00N 45°06' W 033°36'1818.0 210 / 161035.9 17.0 18.5
2016-Jun-26 06:00N 45°00' W 034°00'1414.1 210 / 141035.6 16.7 17.7
2016-Jun-26 05:00N 44°54' W 034°18'1818.0 200 / 141035.5 16.9 17.4
2016-Jun-26 04:00N 44°48' W 034°42'2120.9 200 / 131035.8 17.2 17.7
2016-Jun-26 03:00N 44°36' W 035°06'1818.1 200 / 151035.8 17.2 17.2
2016-Jun-26 02:00N 44°30' W 035°30'1818.2 190 / 141036.0 18.0 18.4
2016-Jun-26 01:00N 44°24' W 035°54'3919.4 190 / 161036.3 18.4 19.0
2016-Jun-25 23:00N 44°06' W 036°42'1818.3 190 / 141036.0 18.9 19.0
2016-Jun-25 22:00N 44°00' W 037°06'1414.3 180 / 131035.1 19.0 19.4
2016-Jun-25 21:00N 43°54' W 037°24'2121.1 180 / 131035.1 19.4 19.7
2016-Jun-25 20:00N 43°42' W 037°48'1818.4 190 / 111035.0 19.9 19.4
2016-Jun-25 19:00N 43°36' W 038°12'1818.4 200 / 121035.0 20.4 19.5
2016-Jun-25 18:00N 43°30' W 038°36'1817.7 210 / 131035.0 21.4 20.4
2016-Jun-25 17:00N 43°18' W 038°54'1818.5 200 / 141035.1 19.4 19.9
2016-Jun-25 16:00N 43°12' W 039°18'1918.5 200 / 141034.9 19.2 19.4
2016-Jun-25 15:00N 43°06' W 039°42'3617.8 190 / 131034.7 19.9 18.7
2016-Jun-25 13:00N 42°48' W 040°24'3617.9 210 / 181034.5 20.2 21.2
2016-Jun-25 11:00N 42°30' W 041°06'1918.7 200 / 181034.1 20.0 21.2
2016-Jun-25 10:00N 42°24' W 041°30'3618.0 190 / 181034.1 20.2 21.2
2016-Jun-25 08:00N 42°06' W 042°12'1818.0 190 / 181032.7 20.2 21.2
2016-Jun-25 07:00N 41°54' W 042°30'1918.9 180 / 171032.2 20.2 21.0
2016-Jun-25 06:00N 41°48' W 042°54'1818.0 200 / 171032.1 20.5 21.9
2016-Jun-25 05:00N 41°36' W 043°12'1918.9 200 / 171031.8 20.4 21.2
2016-Jun-25 04:00N 41°30' W 043°36'1818.1 290 / 51018.3 14.711.016.7
2016-Jun-25 03:00N 41°18' W 043°54'1919.0 180 / 191031.8 19.9 20.5
2016-Jun-25 02:00N 41°12' W 044°18'1818.1 200 / 171032.2 20.4 20.9
2016-Jun-25 01:00N 41°00' W 044°36'1919.1 210 / 181032.5 20.7 21.5
2016-Jun-25 00:00N 40°54' W 045°00'1818.2 200 / 181032.5 20.9 22.7
2016-Jun-24 23:00N 40°42' W 045°18'1919.2 200 / 181031.8 20.9 22.4
2016-Jun-24 22:00N 40°36' W 045°42'1818.2 190 / 171031.2 21.2 21.7
2016-Jun-24 21:00N 40°24' W 046°00'1818.2 210 / 191031.4 21.9 22.2
2016-Jun-24 20:00N 40°12' W 046°18'1919.3 200 / 171031.0 21.7 22.0
2016-Jun-24 19:00N 40°06' W 046°42'1818.3 200 / 191031.0 21.7 21.5
2016-Jun-24 18:00N 39°54' W 047°00'1818.3 200 / 181031.2 21.2 21.9
2016-Jun-24 17:00N 39°42' W 047°18'1919.4 200 / 201030.8 22.7 24.2
2016-Jun-24 16:00N 39°36' W 047°42'1818.4 200 / 231030.5 23.4 25.2
2016-Jun-24 15:00N 39°24' W 048°00'3718.6 200 / 211030.4 23.7 25.4
2016-Jun-24 13:00N 39°06' W 048°42'1818.4 200 / 231030.2 23.7 25.2
2016-Jun-24 12:00N 38°54' W 049°00'1515.2 200 / 191029.9 23.5 25.2
2016-Jun-24 11:00N 38°48' W 049°18'1818.5 200 / 181029.5 23.2 24.0
2016-Jun-24 10:00N 38°36' W 049°36'2222.3 190 / 181029.0 22.9 24.4
2016-Jun-24 09:00N 38°24' W 050°00'1515.3 180 / 171028.4 22.9 24.2
2016-Jun-24 08:00N 38°18' W 050°18'1918.5 190 / 171028.2 22.9 24.4
2016-Jun-24 07:00N 38°06' W 050°36'1918.6 190 / 171028.1 22.9 24.2
2016-Jun-24 06:00N 37°54' W 050°54'1515.4 200 / 171028.3 23.0 24.2
2016-Jun-24 05:00N 37°48' W 051°12'1918.6 190 / 171028.4 22.9 23.9
2016-Jun-24 04:00N 37°36' W 051°30'1918.7 190 / 171028.8 23.0 24.2
2016-Jun-24 03:00N 37°24' W 051°48'1918.7 180 / 171029.0 23.2 24.5
2016-Jun-24 02:00N 37°12' W 052°06'1615.6 170 / 171028.9 23.4 24.9
2016-Jun-24 01:00N 37°06' W 052°24'1918.7 170 / 181029.0 23.7 25.2
2016-Jun-24 00:00N 36°54' W 052°42'1918.8 180 / 151029.1 24.0 25.2
2016-Jun-23 23:00N 36°42' W 053°00'3417.0 180 / 161028.3 23.7 24.9
2016-Jun-23 21:00N 36°24' W 053°36'2322.8 170 / 161027.6 24.2 25.0
2016-Jun-23 20:00N 36°12' W 054°00'1918.9 170 / 161027.8 24.5 24.9
2016-Jun-23 19:00N 36°00' W 054°18'1918.9 160 / 151028.0 24.4 24.5
2016-Jun-23 18:00N 35°48' W 054°36'1615.8 170 / 141027.8 24.7 24.7
2016-Jun-23 17:00N 35°42' W 054°54'1918.9 160 / 141027.7 25.4 25.0
2016-Jun-23 16:00N 35°30' W 055°12'1919.0 160 / 151027.7 25.2 25.0
2016-Jun-23 15:00N 35°18' W 055°30'1515.5 170 / 141027.6 25.2 25.2
2016-Jun-23 14:00N 35°06' W 055°42'1919.0 180 / 151027.5 25.2 25.4
2016-Jun-23 13:00N 34°54' W 056°00'1919.0 180 / 161027.3 24.4 25.4
2016-Jun-23 12:00N 34°42' W 056°18'1919.1 170 / 151027.2 24.5 25.4
2016-Jun-23 11:00N 34°30' W 056°36'1616.0 180 / 151027.0 24.5 25.9
2016-Jun-23 10:00N 34°24' W 056°54'1919.1
2016-Jun-23 09:00N 34°12' W 057°12'1919.1
2016-Jun-23 08:00N 34°00' W 057°30'3517.3
2016-Jun-23 06:00N 33°36' W 058°00'1919.2
2016-Jun-23 05:00N 33°24' W 058°18'1919.2
2016-Jun-23 04:00N 33°12' W 058°36'1919.3
2016-Jun-23 03:00N 33°00' W 058°54'1919.3
2016-Jun-23 02:00N 32°48' W 059°12'1616.3
2016-Jun-23 01:00N 32°42' W 059°30'1615.7
2016-Jun-23 00:00N 32°30' W 059°42'1919.4
2016-Jun-22 23:00N 32°18' W 060°00'1919.4
2016-Jun-22 22:00N 32°06' W 060°18'1919.4
2016-Jun-22 21:00N 31°54' W 060°36'1615.7
2016-Jun-22 20:00N 31°42' W 060°48'1919.5
2016-Jun-22 19:00N 31°30' W 061°06'1919.5
2016-Jun-22 18:00N 31°18' W 061°24'1615.8
2016-Jun-22 17:00N 31°06' W 061°36'2019.5
2016-Jun-22 16:00N 30°54' W 061°54'2019.6
2016-Jun-22 15:00N 30°42' W 062°12'1615.8
2016-Jun-22 14:00N 30°30' W 062°24'2019.6
2016-Jun-22 13:00N 30°18' W 062°42'2019.6
2016-Jun-22 12:00N 30°06' W 063°00'1615.9
2016-Jun-22 11:00N 29°54' W 063°12'2019.7
2016-Jun-22 10:00N 29°42' W 063°30'1615.9
2016-Jun-22 09:00N 29°30' W 063°42'2019.7
2016-Jun-22 08:00N 29°18' W 064°00'3617.8
2016-Jun-22 06:00N 28°54' W 064°30'2019.8
2016-Jun-22 05:00N 28°42' W 064°48'1616.0
2016-Jun-22 04:00N 28°30' W 065°00'2019.9
2016-Jun-22 03:00N 28°18' W 065°18'1616.0
2016-Jun-22 02:00N 28°06' W 065°30'2019.9 140 / 191024.2 26.5 28.2
2016-Jun-22 01:00N 27°54' W 065°48'1616.0 130 / 191023.6 26.7 28.4
2016-Jun-22 00:00N 27°42' W 066°00'2020.0 130 / 171023.3 26.7 29.4
2016-Jun-21 23:00N 27°30' W 066°18'1616.0 130 / 171022.8 26.9 28.4
2016-Jun-21 22:00N 27°18' W 066°30'2020.0 130 / 181022.3 26.9 28.4
2016-Jun-21 21:00N 27°06' W 066°48'1616.1 130 / 181022.0 27.7 29.2
2016-Jun-21 20:00N 26°54' W 067°00'2424.1 130 / 181022.0 27.9 29.9
2016-Jun-21 19:00N 26°36' W 067°18'1616.1 130 / 191021.7 27.9 29.0
2016-Jun-21 18:00N 26°24' W 067°30'1616.1 130 / 181021.9 27.7 28.9
2016-Jun-21 17:00N 26°12' W 067°42'2020.1 130 / 171021.9 27.7 29.5
2016-Jun-21 16:00N 26°00' W 068°00'1616.1 130 / 171022.2 27.4 29.5
2016-Jun-21 15:00N 25°48' W 068°12'2020.2 130 / 161022.2 25.7 29.4
2016-Jun-21 14:00N 25°36' W 068°30'1616.2 120 / 251021.5 26.4 29.0
2016-Jun-21 13:00N 25°24' W 068°42'2020.2 110 / 161021.2 27.7 29.2
2016-Jun-21 12:00N 25°12' W 069°00'1616.2 140 / 161021.0 27.9 29.4
2016-Jun-21 11:00N 25°00' W 069°12'1616.2 180 / 171021.0 27.5 30.2
2016-Jun-21 10:00N 24°48' W 069°24'2020.3 160 / 201020.6 27.2 31.4
2016-Jun-21 09:00N 24°36' W 069°42'1616.2 140 / 191019.8 26.5
2016-Jun-21 08:00N 24°24' W 069°54'2121.1 160 / 251019.1 26.2 31.4
2016-Jun-21 07:00N 24°06' W 070°06'7217.9 150 / 201019.0 27.0 33.4
2016-Jun-21 03:00N 23°00' W 070°36'1918.8 130 / 251020.2 24.4 31.9
2016-Jun-21 02:00N 22°42' W 070°42'1918.8 090 / 241018.5 27.9 31.5
2016-Jun-21 01:00N 22°24' W 070°48'2121.2 110 / 211017.7 28.4 38.9
2016-Jun-21 00:00N 22°06' W 071°00'1313.2 110 / 221017.2 28.2 31.9
2016-Jun-20 23:00N 21°54' W 071°06'1918.8 110 / 231017.0 28.7 33.9
2016-Jun-20 22:00N 21°36' W 071°12'1918.8 100 / 261016.2 28.9 30.4
2016-Jun-20 21:00N 21°18' W 071°18'2121.2 100 / 261016.0 29.2 30.7
2016-Jun-20 20:00N 21°00' W 071°30'71 4.5 100 / 251016.2 29.2 31.4
2016-Jun-20 04:00N 21°24' W 072°42'   090 / 111018.1 28.5 29.4
Track history (hours):
 
Tides and Currents Weather Stations Pressure Air Temp Water Temp Dewpoint Dewpoint Depression Visibility Wind Speed Wind Dir Waves Ship Positions

Callsign BATFR13 (name unknown)

Last reported at 2016-Jun-30 04:00 UTC. Time now 2016-Jun-30 08:46 UTC.
Position N 51°54' E 004°24'.

Barometer 1009.5 mb

Date/timePositionNaut miles runAvg speedWind from/ knotsBaromVisibWave heightAir tempDewpointWater temp
2016-Jun-30 04:00N 51°54' E 004°24'4 3.7 1009.5
2016-Jun-30 03:00N 51°54' E 004°18'3311.1 1009.4
2016-Jun-30 00:00N 51°54' E 003°24'1111.1 1008.9
2016-Jun-29 23:00N 51°54' E 003°06'1616.0 1008.8
2016-Jun-29 22:00N 51°48' E 002°42'1616.4 1008.8
2016-Jun-29 21:00N 51°36' E 002°24'1616.4 1009.4
2016-Jun-29 20:00N 51°24' E 002°06'1312.6 1009.6
2016-Jun-29 19:00N 51°12' E 002°00'1616.2 1009.7
2016-Jun-29 18:00N 51°06' E 001°36'2019.5 1010.1
2016-Jun-29 17:00N 50°48' E 001°24'1414.2 1010.7
2016-Jun-29 16:00N 50°36' E 001°12'15216.9 1011.5
2016-Jun-29 07:00N 49°54' W 002°36'1716.6 230 / 171013.3 14.0 14.9
2016-Jun-29 06:00N 49°48' W 003°00'3618.0 230 / 181013.3 14.2 14.7
2016-Jun-29 04:00N 49°30' W 003°48'1716.7 230 / 141014.0 15.4 15.7
2016-Jun-29 03:00N 49°24' W 004°12'2019.5 250 / 171014.1 15.4 16.7
2016-Jun-29 02:00N 49°24' W 004°42'5518.2 250 / 161014.5 15.7 16.7
2016-Jun-28 23:00N 49°24' W 006°06'1615.6 260 / 181015.9 17.9 17.7
2016-Jun-28 22:00N 49°24' W 006°30'8617.2 270 / 191016.2 16.2 18.7
2016-Jun-28 17:00N 49°18' W 008°42'2019.6 280 / 191016.7 16.4 17.5
2016-Jun-28 16:00N 49°18' W 009°12'2713.7 280 / 201017.0 15.9 17.4
2016-Jun-28 14:00N 49°18' W 009°54'3617.9 290 / 191017.4 15.9 16.7
2016-Jun-28 12:00N 49°12' W 010°48'1716.8 280 / 181017.6 15.4 16.0
2016-Jun-28 11:00N 49°06' W 011°12'3517.7 290 / 191017.9 15.0 15.4
2016-Jun-28 09:00N 49°06' W 012°06'3617.9 300 / 241018.0 14.9 15.9
2016-Jun-28 07:00N 49°00' W 013°00'5217.2 300 / 261017.8 14.9 16.7
2016-Jun-28 04:00N 48°54' W 014°18'5718.9 290 / 241017.4 15.4 16.7
2016-Jun-28 01:00N 48°42' W 015°42'14117.7 260 / 201018.6 16.4 15.9
2016-Jun-27 17:00N 48°18' W 019°12'9118.3 250 / 201023.2 18.4 16.2
2016-Jun-27 12:00N 47°54' W 021°24'22018.3 260 / 201026.2 17.4 16.5
2016-Jun-27 00:00N 46°54' W 026°36'3517.5 250 / 161033.1 17.7 17.2
2016-Jun-26 22:00N 46°42' W 027°24'3919.5 250 / 171033.6 18.5 18.2
2016-Jun-26 20:00N 46°30' W 028°18'5317.6 240 / 161034.0 19.4 18.2
2016-Jun-26 17:00N 46°12' W 029°30'1817.7 240 / 141034.9 20.7 18.4
2016-Jun-26 16:00N 46°06' W 029°54'1817.7 240 / 131035.2 20.4 18.2
2016-Jun-26 15:00N 46°00' W 030°18'2221.7 230 / 141035.6 20.5 18.2
2016-Jun-26 14:00N 45°54' W 030°48'1817.8 230 / 141036.1 20.0 17.7
2016-Jun-26 13:00N 45°48' W 031°12'1817.8 230 / 151036.3 18.9 18.5
2016-Jun-26 12:00N 45°42' W 031°36'3819.1 230 / 131036.4 19.0 17.9
2016-Jun-26 10:00N 45°24' W 032°24'1817.9 220 / 131036.3 17.9 18.0
2016-Jun-26 09:00N 45°18' W 032°48'1817.9 220 / 141036.0 17.4 18.2
2016-Jun-26 08:00N 45°12' W 033°12'1818.0 220 / 131035.9 17.4 18.5
2016-Jun-26 07:00N 45°06' W 033°36'1818.0 210 / 161035.9 17.0 18.5
2016-Jun-26 06:00N 45°00' W 034°00'1414.1 210 / 141035.6 16.7 17.7
2016-Jun-26 05:00N 44°54' W 034°18'1818.0 200 / 141035.5 16.9 17.4
2016-Jun-26 04:00N 44°48' W 034°42'2120.9 200 / 131035.8 17.2 17.7
2016-Jun-26 03:00N 44°36' W 035°06'1818.1 200 / 151035.8 17.2 17.2
2016-Jun-26 02:00N 44°30' W 035°30'1818.2 190 / 141036.0 18.0 18.4
2016-Jun-26 01:00N 44°24' W 035°54'3919.4 190 / 161036.3 18.4 19.0
2016-Jun-25 23:00N 44°06' W 036°42'1818.3 190 / 141036.0 18.9 19.0
2016-Jun-25 22:00N 44°00' W 037°06'1414.3 180 / 131035.1 19.0 19.4
2016-Jun-25 21:00N 43°54' W 037°24'2121.1 180 / 131035.1 19.4 19.7
2016-Jun-25 20:00N 43°42' W 037°48'1818.4 190 / 111035.0 19.9 19.4
2016-Jun-25 19:00N 43°36' W 038°12'1818.4 200 / 121035.0 20.4 19.5
2016-Jun-25 18:00N 43°30' W 038°36'1817.7 210 / 131035.0 21.4 20.4
2016-Jun-25 17:00N 43°18' W 038°54'1818.5 200 / 141035.1 19.4 19.9
2016-Jun-25 16:00N 43°12' W 039°18'1918.5 200 / 141034.9 19.2 19.4
2016-Jun-25 15:00N 43°06' W 039°42'3617.8 190 / 131034.7 19.9 18.7
2016-Jun-25 13:00N 42°48' W 040°24'3617.9 210 / 181034.5 20.2 21.2
2016-Jun-25 11:00N 42°30' W 041°06'1918.7 200 / 181034.1 20.0 21.2
2016-Jun-25 10:00N 42°24' W 041°30'3618.0 190 / 181034.1 20.2 21.2
2016-Jun-25 08:00N 42°06' W 042°12'1818.0 190 / 181032.7 20.2 21.2
2016-Jun-25 07:00N 41°54' W 042°30'1918.9 180 / 171032.2 20.2 21.0
2016-Jun-25 06:00N 41°48' W 042°54'1818.0 200 / 171032.1 20.5 21.9
2016-Jun-25 05:00N 41°36' W 043°12'1918.9 200 / 171031.8 20.4 21.2
2016-Jun-25 04:00N 41°30' W 043°36'1818.1 290 / 51018.3 14.711.016.7
2016-Jun-25 03:00N 41°18' W 043°54'1919.0 180 / 191031.8 19.9 20.5
2016-Jun-25 02:00N 41°12' W 044°18'1818.1 200 / 171032.2 20.4 20.9
2016-Jun-25 01:00N 41°00' W 044°36'1919.1 210 / 181032.5 20.7 21.5
2016-Jun-25 00:00N 40°54' W 045°00'1818.2 200 / 181032.5 20.9 22.7
2016-Jun-24 23:00N 40°42' W 045°18'1919.2 200 / 181031.8 20.9 22.4
2016-Jun-24 22:00N 40°36' W 045°42'1818.2 190 / 171031.2 21.2 21.7
2016-Jun-24 21:00N 40°24' W 046°00'1818.2 210 / 191031.4 21.9 22.2
2016-Jun-24 20:00N 40°12' W 046°18'1919.3 200 / 171031.0 21.7 22.0
2016-Jun-24 19:00N 40°06' W 046°42'1818.3 200 / 191031.0 21.7 21.5
2016-Jun-24 18:00N 39°54' W 047°00'1818.3 200 / 181031.2 21.2 21.9
2016-Jun-24 17:00N 39°42' W 047°18'1919.4 200 / 201030.8 22.7 24.2
2016-Jun-24 16:00N 39°36' W 047°42'1818.4 200 / 231030.5 23.4 25.2
2016-Jun-24 15:00N 39°24' W 048°00'3718.6 200 / 211030.4 23.7 25.4
2016-Jun-24 13:00N 39°06' W 048°42'1818.4 200 / 231030.2 23.7 25.2
2016-Jun-24 12:00N 38°54' W 049°00'1515.2 200 / 191029.9 23.5 25.2
2016-Jun-24 11:00N 38°48' W 049°18'1818.5 200 / 181029.5 23.2 24.0
2016-Jun-24 10:00N 38°36' W 049°36'2222.3 190 / 181029.0 22.9 24.4
2016-Jun-24 09:00N 38°24' W 050°00'1515.3 180 / 171028.4 22.9 24.2
2016-Jun-24 08:00N 38°18' W 050°18'1918.5 190 / 171028.2 22.9 24.4
2016-Jun-24 07:00N 38°06' W 050°36'1918.6 190 / 171028.1 22.9 24.2
2016-Jun-24 06:00N 37°54' W 050°54'1515.4 200 / 171028.3 23.0 24.2
2016-Jun-24 05:00N 37°48' W 051°12'1918.6 190 / 171028.4 22.9 23.9
2016-Jun-24 04:00N 37°36' W 051°30'1918.7 190 / 171028.8 23.0 24.2
2016-Jun-24 03:00N 37°24' W 051°48'1918.7 180 / 171029.0 23.2 24.5
2016-Jun-24 02:00N 37°12' W 052°06'1615.6 170 / 171028.9 23.4 24.9
2016-Jun-24 01:00N 37°06' W 052°24'1918.7 170 / 181029.0 23.7 25.2
2016-Jun-24 00:00N 36°54' W 052°42'1918.8 180 / 151029.1 24.0 25.2
2016-Jun-23 23:00N 36°42' W 053°00'3417.0 180 / 161028.3 23.7 24.9
2016-Jun-23 21:00N 36°24' W 053°36'2322.8 170 / 161027.6 24.2 25.0
2016-Jun-23 20:00N 36°12' W 054°00'1918.9 170 / 161027.8 24.5 24.9
2016-Jun-23 19:00N 36°00' W 054°18'1918.9 160 / 151028.0 24.4 24.5
2016-Jun-23 18:00N 35°48' W 054°36'1615.8 170 / 141027.8 24.7 24.7
2016-Jun-23 17:00N 35°42' W 054°54'1918.9 160 / 141027.7 25.4 25.0
2016-Jun-23 16:00N 35°30' W 055°12'1919.0 160 / 151027.7 25.2 25.0
2016-Jun-23 15:00N 35°18' W 055°30'1515.5 170 / 141027.6 25.2 25.2
2016-Jun-23 14:00N 35°06' W 055°42'1919.0 180 / 151027.5 25.2 25.4
2016-Jun-23 13:00N 34°54' W 056°00'1919.0 180 / 161027.3 24.4 25.4
2016-Jun-23 12:00N 34°42' W 056°18'1919.1 170 / 151027.2 24.5 25.4
2016-Jun-23 11:00N 34°30' W 056°36'1616.0 180 / 151027.0 24.5 25.9
2016-Jun-23 10:00N 34°24' W 056°54'1919.1
2016-Jun-23 09:00N 34°12' W 057°12'1919.1
2016-Jun-23 08:00N 34°00' W 057°30'3517.3
2016-Jun-23 06:00N 33°36' W 058°00'1919.2
2016-Jun-23 05:00N 33°24' W 058°18'1919.2
2016-Jun-23 04:00N 33°12' W 058°36'1919.3
2016-Jun-23 03:00N 33°00' W 058°54'1919.3
2016-Jun-23 02:00N 32°48' W 059°12'1616.3
2016-Jun-23 01:00N 32°42' W 059°30'1615.7
2016-Jun-23 00:00N 32°30' W 059°42'1919.4
2016-Jun-22 23:00N 32°18' W 060°00'1919.4
2016-Jun-22 22:00N 32°06' W 060°18'1919.4
2016-Jun-22 21:00N 31°54' W 060°36'1615.7
2016-Jun-22 20:00N 31°42' W 060°48'1919.5
2016-Jun-22 19:00N 31°30' W 061°06'1919.5
2016-Jun-22 18:00N 31°18' W 061°24'1615.8
2016-Jun-22 17:00N 31°06' W 061°36'2019.5
2016-Jun-22 16:00N 30°54' W 061°54'2019.6
2016-Jun-22 15:00N 30°42' W 062°12'1615.8
2016-Jun-22 14:00N 30°30' W 062°24'2019.6
2016-Jun-22 13:00N 30°18' W 062°42'2019.6
2016-Jun-22 12:00N 30°06' W 063°00'1615.9
2016-Jun-22 11:00N 29°54' W 063°12'2019.7
2016-Jun-22 10:00N 29°42' W 063°30'1615.9
2016-Jun-22 09:00N 29°30' W 063°42'2019.7
2016-Jun-22 08:00N 29°18' W 064°00'3617.8
2016-Jun-22 06:00N 28°54' W 064°30'2019.8
2016-Jun-22 05:00N 28°42' W 064°48'1616.0
2016-Jun-22 04:00N 28°30' W 065°00'2019.9
2016-Jun-22 03:00N 28°18' W 065°18'1616.0
2016-Jun-22 02:00N 28°06' W 065°30'2019.9 140 / 191024.2 26.5 28.2
2016-Jun-22 01:00N 27°54' W 065°48'1616.0 130 / 191023.6 26.7 28.4
2016-Jun-22 00:00N 27°42' W 066°00'2020.0 130 / 171023.3 26.7 29.4
2016-Jun-21 23:00N 27°30' W 066°18'1616.0 130 / 171022.8 26.9 28.4
2016-Jun-21 22:00N 27°18' W 066°30'2020.0 130 / 181022.3 26.9 28.4
2016-Jun-21 21:00N 27°06' W 066°48'1616.1 130 / 181022.0 27.7 29.2
2016-Jun-21 20:00N 26°54' W 067°00'2424.1 130 / 181022.0 27.9 29.9
2016-Jun-21 19:00N 26°36' W 067°18'1616.1 130 / 191021.7 27.9 29.0
2016-Jun-21 18:00N 26°24' W 067°30'1616.1 130 / 181021.9 27.7 28.9
2016-Jun-21 17:00N 26°12' W 067°42'2020.1 130 / 171021.9 27.7 29.5
2016-Jun-21 16:00N 26°00' W 068°00'1616.1 130 / 171022.2 27.4 29.5
2016-Jun-21 15:00N 25°48' W 068°12'2020.2 130 / 161022.2 25.7 29.4
2016-Jun-21 14:00N 25°36' W 068°30'1616.2 120 / 251021.5 26.4 29.0
2016-Jun-21 13:00N 25°24' W 068°42'2020.2 110 / 161021.2 27.7 29.2
2016-Jun-21 12:00N 25°12' W 069°00'1616.2 140 / 161021.0 27.9 29.4
2016-Jun-21 11:00N 25°00' W 069°12'1616.2 180 / 171021.0 27.5 30.2
2016-Jun-21 10:00N 24°48' W 069°24'2020.3 160 / 201020.6 27.2 31.4
2016-Jun-21 09:00N 24°36' W 069°42'1616.2 140 / 191019.8 26.5
2016-Jun-21 08:00N 24°24' W 069°54'2121.1 160 / 251019.1 26.2 31.4
2016-Jun-21 07:00N 24°06' W 070°06'7217.9 150 / 201019.0 27.0 33.4
2016-Jun-21 03:00N 23°00' W 070°36'1918.8 130 / 251020.2 24.4 31.9
2016-Jun-21 02:00N 22°42' W 070°42'1918.8 090 / 241018.5 27.9 31.5
2016-Jun-21 01:00N 22°24' W 070°48'2121.2 110 / 211017.7 28.4 38.9
2016-Jun-21 00:00N 22°06' W 071°00'1313.2 110 / 221017.2 28.2 31.9
2016-Jun-20 23:00N 21°54' W 071°06'1918.8 110 / 231017.0 28.7 33.9
2016-Jun-20 22:00N 21°36' W 071°12'1918.8 100 / 261016.2 28.9 30.4
2016-Jun-20 21:00N 21°18' W 071°18'2121.2 100 / 261016.0 29.2 30.7
2016-Jun-20 20:00N 21°00' W 071°30'71 4.5 100 / 251016.2 29.2 31.4
2016-Jun-20 04:00N 21°24' W 072°42'   090 / 111018.1 28.5 29.4

Dump ship's entire track history